Time;durP1;ratioP1;P1;durP2;ratioP2;P2;SDS_P1;SDS_P2;PMS_P1;PMS_P2;Temp;Humidity;BMP_temperature;BMP_pressure;BME280_temperature;BME280_humidity;BME280_pressure;Samples;Min_cycle;Max_cycle;Signal;HPM_P1;HPM_P2
2023/01/15 00:01:41;;;;;;;;;;;5.80;99.90;;;;;;5021292;28;19931;-95
2023/01/15 00:04:07;;;;;;;;;;;5.70;99.90;;;;;;5032720;28;19943;-96
2023/01/15 00:06:39;;;;;;;;;;;5.70;99.90;;;;;;5028700;28;19981;-96
2023/01/15 00:09:05;;;;;;;;;;;5.70;99.90;;;;;;5022238;28;19930;-95
2023/01/15 00:11:31;;;;;;;;;;;5.70;99.90;;;;;;5021277;28;19932;-95
2023/01/15 00:13:56;;;;;;;;;;;5.70;99.90;;;;;;5014735;28;19968;-95
2023/01/15 00:16:23;;;;;;;;;;;5.70;99.90;;;;;;5020620;28;20022;-95
2023/01/15 00:18:50;;;;;;;;;;;5.80;99.90;;;;;;5016784;28;19925;-95
2023/01/15 00:21:16;;;;;;;;;;;5.70;99.90;;;;;;5014084;28;19933;-94
2023/01/15 00:29:11;;;;;;;;;;;5.70;99.90;;;;;;5030309;28;19935;-96
2023/01/15 00:31:36;;;;;;;;;;;5.70;99.90;;;;;;5011539;28;19977;-95
2023/01/15 00:34:03;;;;;;;;;;;5.70;99.90;;;;;;5018652;28;20040;-96
2023/01/15 00:36:28;;;;;;;;;;;5.70;99.90;;;;;;5006234;28;19933;-94
2023/01/15 00:38:54;;;;;;;;;;;5.70;99.90;;;;;;5007992;28;19925;-95
2023/01/15 00:41:20;;;;;;;;;;;6.90;99.90;;;;;;5007879;28;20020;-94
2023/01/15 00:43:46;;;;;;;;;;;5.70;99.90;;;;;;5021296;28;19929;-94
2023/01/15 00:46:11;;;;;;;;;;;5.70;99.90;;;;;;5017271;28;20012;-96
2023/01/15 00:48:38;;;;;;;;;;;5.70;99.90;;;;;;5020317;28;19928;-96
2023/01/15 00:51:04;;;;;;;;;;;5.70;99.90;;;;;;5005761;28;19925;-95
2023/01/15 00:53:29;;;;;;;;;;;5.70;99.90;;;;;;4997849;28;19932;-94
2023/01/15 00:55:55;;;;;;;;;;;5.70;99.90;;;;;;5022980;28;19932;-94
2023/01/15 00:58:21;;;;;;;;;;;5.70;99.90;;;;;;5006197;28;19936;-94
2023/01/15 01:00:51;;;;;;;;;;;5.70;99.90;;;;;;5022083;28;19931;-94
2023/01/15 01:03:17;;;;;;;;;;;5.70;99.90;;;;;;5026634;28;19925;-95
2023/01/15 01:05:42;;;;;;;;;;;5.60;99.90;;;;;;5006975;28;19933;-95
2023/01/15 01:08:08;;;;;;;;;;;5.60;99.90;;;;;;5008599;28;19932;-95
2023/01/15 01:10:34;;;;;;;;;;;5.70;99.90;;;;;;5006325;28;19933;-95
2023/01/15 01:12:59;;;;;;;;;;;5.70;99.90;;;;;;5004884;28;20409;-94
2023/01/15 01:15:25;;;;;;;;;;;5.70;99.90;;;;;;5004946;28;19961;-95
2023/01/15 01:17:50;;;;;;;;;;;5.70;99.90;;;;;;5006616;28;20035;-95
2023/01/15 01:20:17;;;;;;;;;;;5.70;99.90;;;;;;5004596;28;20047;-95
2023/01/15 01:22:43;;;;;;;;;;;5.70;99.90;;;;;;5017186;28;19921;-95
2023/01/15 01:25:09;;;;;;;;;;;5.70;99.90;;;;;;5029199;28;19913;-96
2023/01/15 01:27:34;;;;;;;;;;;5.70;99.90;;;;;;5019281;28;19932;-95
2023/01/15 01:30:00;;;;;;;;;;;5.70;99.90;;;;;;5010354;28;19925;-95
2023/01/15 01:32:26;;;;;;;;;;;5.70;99.90;;;;;;5021866;28;19933;-96
2023/01/15 01:34:51;;;;;;;;;;;5.60;99.90;;;;;;4992984;28;19932;-96
2023/01/15 01:37:17;;;;;;;;;;;5.60;99.90;;;;;;5005538;28;19925;-94
2023/01/15 01:39:42;;;;;;;;;;;5.60;99.90;;;;;;5020515;28;19948;-94
2023/01/15 01:42:15;;;;;;;;;;;5.60;99.90;;;;;;4995027;28;19925;-96
2023/01/15 01:44:44;;;;;;;;;;;5.60;99.90;;;;;;5023519;28;19926;-95
2023/01/15 01:47:14;;;;;;;;;;;4.30;99.90;;;;;;5024640;28;19925;-96
2023/01/15 01:49:42;;;;;;;;;;;5.70;99.90;;;;;;5020705;28;19988;-95
2023/01/15 01:52:19;;;;;;;;;;;5.70;99.90;;;;;;5007401;28;19981;-94
2023/01/15 01:54:47;;;;;;;;;;;5.70;99.90;;;;;;5030867;28;20445;-96
2023/01/15 01:57:13;;;;;;;;;;;5.60;99.90;;;;;;5006148;28;20299;-95
2023/01/15 01:59:39;;;;;;;;;;;5.60;99.90;;;;;;5004138;28;19925;-96
2023/01/15 02:02:04;;;;;;;;;;;5.60;99.90;;;;;;5013047;28;19936;-95
2023/01/15 02:04:30;;;;;;;;;;;5.60;99.90;;;;;;5017214;28;19959;-95
2023/01/15 02:06:57;;;;;;;;;;;5.60;99.90;;;;;;5004679;28;19930;-95
2023/01/15 02:09:23;;;;;;;;;;;5.60;99.90;;;;;;5013471;28;19997;-95
2023/01/15 02:11:49;;;;;;;;;;;5.60;99.90;;;;;;5023781;28;19925;-96
2023/01/15 02:14:18;;;;;;;;;;;5.60;99.90;;;;;;5003139;28;19979;-94
2023/01/15 02:16:47;;;;;;;;;;;5.60;99.90;;;;;;5024703;28;20003;-95
2023/01/15 02:19:21;;;;;;;;;;;5.60;99.90;;;;;;5019140;28;20012;-95
2023/01/15 02:21:55;;;;;;;;;;;5.60;99.90;;;;;;5019923;28;19925;-95
2023/01/15 02:24:42;;;;;;;;;;;5.60;99.90;;;;;;5028006;28;19932;-93
2023/01/15 02:27:19;;;;;;;;;;;5.50;99.90;;;;;;5019364;28;19937;-94
2023/01/15 02:30:03;;;;;;;;;;;5.50;99.90;;;;;;5008177;28;19969;-96
2023/01/15 02:32:33;;;;;;;;;;;5.50;99.90;;;;;;5025149;28;19932;-94
2023/01/15 02:35:02;;;;;;;;;;;5.50;99.90;;;;;;5020166;28;19984;-94
2023/01/15 02:37:30;;;;;;;;;;;5.50;99.90;;;;;;5018961;28;20303;-94
2023/01/15 02:39:57;;;;;;;;;;;5.50;99.90;;;;;;5020475;28;19939;-96
2023/01/15 02:42:23;;;;;;;;;;;5.60;99.90;;;;;;5022182;28;19925;-95
2023/01/15 02:44:50;;;;;;;;;;;5.60;99.90;;;;;;5019747;28;19925;-94
2023/01/15 02:47:17;;;;;;;;;;;5.60;99.90;;;;;;5027016;28;20039;-95
2023/01/15 02:49:44;;;;;;;;;;;5.60;99.90;;;;;;5026173;28;19940;-96
2023/01/15 02:52:13;;;;;;;;;;;5.60;99.90;;;;;;5036849;28;19921;-95
2023/01/15 02:54:47;;;;;;;;;;;5.60;99.90;;;;;;5019356;28;19948;-95
2023/01/15 02:57:14;;;;;;;;;;;5.60;99.90;;;;;;5023643;28;19925;-95
2023/01/15 02:59:41;;;;;;;;;;;5.70;99.90;;;;;;5012263;28;19956;-95
2023/01/15 03:02:12;;;;;;;;;;;5.70;99.90;;;;;;5016381;28;20438;-95
2023/01/15 03:05:01;;;;;;;;;;;5.70;99.90;;;;;;5012730;28;19943;-95
2023/01/15 03:07:32;;;;;;;;;;;5.70;99.90;;;;;;4999642;28;19993;-94
2023/01/15 03:09:58;;;;;;;;;;;5.60;99.90;;;;;;5018896;28;19926;-94
2023/01/15 03:12:27;;;;;;;;;;;5.60;99.90;;;;;;5010650;28;19947;-94
2023/01/15 03:15:01;;;;;;;;;;;5.60;99.90;;;;;;5022688;28;19957;-96
2023/01/15 03:17:32;;;;;;;;;;;5.60;99.90;;;;;;5029334;28;19925;-95
2023/01/15 03:20:04;;;;;;;;;;;5.50;99.90;;;;;;5020047;28;19957;-95
2023/01/15 03:22:32;;;;;;;;;;;5.50;99.90;;;;;;5018237;28;19925;-94
2023/01/15 03:25:01;;;;;;;;;;;5.50;99.90;;;;;;5025229;28;19934;-96
2023/01/15 03:27:27;;;;;;;;;;;5.50;99.90;;;;;;5027241;28;19925;-94
2023/01/15 03:29:56;;;;;;;;;;;5.60;99.90;;;;;;5021014;28;20487;-96
2023/01/15 03:32:22;;;;;;;;;;;5.60;99.90;;;;;;5013302;28;19925;-95
2023/01/15 03:34:49;;;;;;;;;;;5.60;99.90;;;;;;5006832;28;19925;-95
2023/01/15 03:37:15;;;;;;;;;;;5.70;99.90;;;;;;5024859;28;19925;-95
2023/01/15 03:39:41;;;;;;;;;;;5.70;99.90;;;;;;5026658;28;19925;-96
2023/01/15 03:42:26;;;;;;;;;;;5.70;99.90;;;;;;5005364;28;19925;-95
2023/01/15 03:45:00;;;;;;;;;;;5.70;99.90;;;;;;5019965;28;19925;-93
2023/01/15 03:47:41;;;;;;;;;;;5.70;99.90;;;;;;5020015;28;19939;-95
2023/01/15 03:50:07;;;;;;;;;;;5.70;99.90;;;;;;5017632;28;19930;-95
2023/01/15 03:52:35;;;;;;;;;;;5.70;99.90;;;;;;5013951;28;19944;-95
2023/01/15 03:55:09;;;;;;;;;;;5.70;99.90;;;;;;5017001;28;19925;-95
2023/01/15 03:57:40;;;;;;;;;;;5.60;99.90;;;;;;5026092;28;19973;-95
2023/01/15 04:00:08;;;;;;;;;;;5.70;99.90;;;;;;5014932;28;19929;-95
2023/01/15 04:02:36;;;;;;;;;;;5.60;99.90;;;;;;5028129;28;19988;-95
2023/01/15 04:05:02;;;;;;;;;;;5.60;99.90;;;;;;5033352;28;19935;-94
2023/01/15 04:07:29;;;;;;;;;;;5.60;99.90;;;;;;5020399;28;19947;-96
2023/01/15 04:09:55;;;;;;;;;;;5.60;99.90;;;;;;5041735;28;19944;-95
2023/01/15 04:12:20;;;;;;;;;;;5.60;99.90;;;;;;5025526;28;19928;-96
2023/01/15 04:14:46;;;;;;;;;;;5.60;99.90;;;;;;5018979;28;20443;-95
2023/01/15 04:17:12;;;;;;;;;;;5.50;99.90;;;;;;5018008;28;19929;-95
2023/01/15 04:19:37;;;;;;;;;;;5.50;99.90;;;;;;5016164;28;19936;-96
2023/01/15 04:22:03;;;;;;;;;;;5.50;99.90;;;;;;5010970;28;19936;-95
2023/01/15 04:24:29;;;;;;;;;;;5.40;99.90;;;;;;5001895;28;19925;-94
2023/01/15 04:26:54;;;;;;;;;;;5.40;99.90;;;;;;5005504;28;19925;-94
2023/01/15 04:29:20;;;;;;;;;;;5.40;99.90;;;;;;5010303;28;19936;-96
2023/01/15 04:31:45;;;;;;;;;;;5.40;99.90;;;;;;4994815;28;20007;-96
2023/01/15 04:34:11;;;;;;;;;;;5.40;99.90;;;;;;5007161;28;19939;-95
2023/01/15 04:36:37;;;;;;;;;;;5.30;99.90;;;;;;5003039;28;19944;-94
2023/01/15 04:39:03;;;;;;;;;;;5.30;99.90;;;;;;5005914;28;19925;-95
2023/01/15 04:44:13;;;;;;;;;;;5.30;99.90;;;;;;5021309;28;19929;-95
2023/01/15 04:46:40;;;;;;;;;;;5.30;99.90;;;;;;5024285;28;19925;-96
2023/01/15 04:49:07;;;;;;;;;;;5.30;99.90;;;;;;5014157;28;19995;-95
2023/01/15 04:51:32;;;;;;;;;;;5.30;99.90;;;;;;5041257;28;20281;-96
2023/01/15 04:54:00;;;;;;;;;;;5.30;99.90;;;;;;4998424;28;19937;-95
2023/01/15 04:56:26;;;;;;;;;;;5.30;99.90;;;;;;5013097;28;19929;-96
2023/01/15 04:58:51;;;;;;;;;;;5.30;99.90;;;;;;5003296;28;19925;-95
2023/01/15 05:01:18;;;;;;;;;;;5.30;99.90;;;;;;5012594;28;19924;-96
2023/01/15 05:03:43;;;;;;;;;;;5.20;99.90;;;;;;5014152;28;19925;-94
2023/01/15 05:06:09;;;;;;;;;;;5.20;99.90;;;;;;5010750;28;19925;-96
2023/01/15 05:08:35;;;;;;;;;;;5.20;99.90;;;;;;5017015;28;19925;-94
2023/01/15 05:11:05;;;;;;;;;;;5.20;99.90;;;;;;5008473;28;19925;-95
2023/01/15 05:13:32;;;;;;;;;;;5.20;99.90;;;;;;5034894;28;19925;-95
2023/01/15 05:16:17;;;;;;;;;;;5.10;99.90;;;;;;5025042;28;19988;-95
2023/01/15 05:18:43;;;;;;;;;;;4.60;99.90;;;;;;5014994;28;19925;-95
2023/01/15 05:21:17;;;;;;;;;;;5.10;99.90;;;;;;5023666;28;20380;-95
2023/01/15 05:23:43;;;;;;;;;;;5.00;99.90;;;;;;5020935;28;20304;-95
2023/01/15 05:26:08;;;;;;;;;;;5.10;99.90;;;;;;5019920;28;19925;-94
2023/01/15 05:28:34;;;;;;;;;;;5.10;99.90;;;;;;5007933;28;19947;-96
2023/01/15 05:31:10;;;;;;;;;;;5.00;99.90;;;;;;5019357;28;19931;-94
2023/01/15 05:33:37;;;;;;;;;;;5.00;99.90;;;;;;5040683;28;19921;-96
2023/01/15 05:36:10;;;;;;;;;;;5.00;99.90;;;;;;5023146;28;19992;-95
2023/01/15 05:38:35;;;;;;;;;;;5.00;99.90;;;;;;5028896;28;20369;-96
2023/01/15 05:43:49;;;;;;;;;;;4.90;99.90;;;;;;5048013;28;20015;-95
2023/01/15 05:46:15;;;;;;;;;;;4.90;99.90;;;;;;5012066;28;19940;-96
2023/01/15 05:48:40;;;;;;;;;;;4.90;99.90;;;;;;5013618;28;19971;-94
2023/01/15 05:51:15;;;;;;;;;;;4.80;99.90;;;;;;5048030;28;20319;-95
2023/01/15 05:53:49;;;;;;;;;;;4.90;99.90;;;;;;5033617;28;19929;-95
2023/01/15 05:56:16;;;;;;;;;;;4.90;99.90;;;;;;5021424;28;19929;-96
2023/01/15 05:58:42;;;;;;;;;;;4.90;99.90;;;;;;5009292;28;19931;-96
2023/01/15 06:01:08;;;;;;;;;;;5.10;99.90;;;;;;5029163;28;19972;-96
2023/01/15 06:03:34;;;;;;;;;;;4.90;99.90;;;;;;5027665;28;19925;-95
2023/01/15 06:05:59;;;;;;;;;;;4.80;99.90;;;;;;5010415;28;20055;-96
2023/01/15 06:08:25;;;;;;;;;;;4.70;99.90;;;;;;5021692;28;19925;-95
2023/01/15 06:10:50;;;;;;;;;;;4.80;99.90;;;;;;5015513;28;19932;-96
2023/01/15 06:13:16;;;;;;;;;;;4.90;99.90;;;;;;5018325;28;19964;-94
2023/01/15 06:15:43;;;;;;;;;;;4.90;99.90;;;;;;5029721;28;19925;-95
2023/01/15 06:18:09;;;;;;;;;;;4.80;99.90;;;;;;5016551;28;19925;-96
2023/01/15 06:20:35;;;;;;;;;;;4.90;99.90;;;;;;5025835;28;19928;-95
2023/01/15 06:23:00;;;;;;;;;;;4.80;99.90;;;;;;5017359;28;19928;-95
2023/01/15 06:25:26;;;;;;;;;;;4.70;99.90;;;;;;5011810;28;19929;-95
2023/01/15 06:27:52;;;;;;;;;;;4.70;99.90;;;;;;5010044;28;19936;-95
2023/01/15 06:30:17;;;;;;;;;;;4.70;99.90;;;;;;5003622;28;19926;-95
2023/01/15 06:32:43;;;;;;;;;;;4.60;99.90;;;;;;5011271;28;19956;-95
2023/01/15 06:35:27;;;;;;;;;;;4.60;99.90;;;;;;5025399;28;19925;-95
2023/01/15 06:37:52;;;;;;;;;;;4.50;99.90;;;;;;5018997;28;19925;-96
2023/01/15 06:40:18;;;;;;;;;;;4.50;99.90;;;;;;5001015;28;19932;-95
2023/01/15 06:48:17;;;;;;;;;;;4.50;99.90;;;;;;5051969;28;19933;-93
2023/01/15 06:50:43;;;;;;;;;;;4.50;99.90;;;;;;5030003;28;19987;-95
2023/01/15 06:53:09;;;;;;;;;;;4.50;99.90;;;;;;5013035;28;20337;-95
2023/01/15 06:55:34;;;;;;;;;;;4.50;99.90;;;;;;5003816;28;19924;-95
2023/01/15 06:58:03;;;;;;;;;;;4.50;99.90;;;;;;5020206;28;19926;-93
2023/01/15 07:00:29;;;;;;;;;;;4.50;99.90;;;;;;5004371;28;19978;-95
2023/01/15 07:02:54;;;;;;;;;;;4.50;99.90;;;;;;5007750;28;19925;-95
2023/01/15 07:05:20;;;;;;;;;;;4.50;99.90;;;;;;5004957;28;19925;-96
2023/01/15 07:07:45;;;;;;;;;;;4.50;99.90;;;;;;5015596;28;19991;-95
2023/01/15 07:10:11;;;;;;;;;;;4.50;99.90;;;;;;5012681;28;19944;-96
2023/01/15 07:12:36;;;;;;;;;;;4.50;99.90;;;;;;5013383;28;19925;-96
2023/01/15 07:15:02;;;;;;;;;;;4.40;99.90;;;;;;5008515;28;19933;-96
2023/01/15 07:17:28;;;;;;;;;;;4.50;99.90;;;;;;5013528;28;19929;-95
2023/01/15 07:19:53;;;;;;;;;;;4.50;99.90;;;;;;5023734;28;20297;-96
2023/01/15 07:22:25;;;;;;;;;;;4.50;99.90;;;;;;5005948;28;19956;-95
2023/01/15 07:24:51;;;;;;;;;;;4.50;99.90;;;;;;5039507;28;19925;-95
2023/01/15 07:27:16;;;;;;;;;;;4.50;99.90;;;;;;5022616;28;19925;-96
2023/01/15 07:29:42;;;;;;;;;;;4.50;99.90;;;;;;5009484;28;19940;-95
2023/01/15 07:32:08;;;;;;;;;;;4.50;99.90;;;;;;5011788;28;19964;-95
2023/01/15 07:34:34;;;;;;;;;;;4.50;99.90;;;;;;5028280;28;19932;-94
2023/01/15 07:36:59;;;;;;;;;;;4.50;99.90;;;;;;5013843;28;19929;-95
2023/01/15 07:39:25;;;;;;;;;;;4.50;99.90;;;;;;5033131;28;19925;-96
2023/01/15 07:50:19;;;;;;;;;;;4.50;99.90;;;;;;5030172;28;19925;-95
2023/01/15 07:52:45;;;;;;;;;;;4.50;99.90;;;;;;5018484;28;19925;-96
2023/01/15 07:55:13;;;;;;;;;;;4.50;99.90;;;;;;5015228;28;19925;-96
2023/01/15 07:57:40;;;;;;;;;;;4.40;99.90;;;;;;5020190;28;19951;-95
2023/01/15 08:00:07;;;;;;;;;;;4.40;99.90;;;;;;5027388;28;19936;-96
2023/01/15 08:02:33;;;;;;;;;;;4.50;99.90;;;;;;5048684;28;19921;-96
2023/01/15 08:04:59;;;;;;;;;;;5.20;99.90;;;;;;5036692;28;19921;-95
2023/01/15 08:07:25;;;;;;;;;;;4.50;99.90;;;;;;5008526;28;19943;-94
2023/01/15 08:09:50;;;;;;;;;;;4.50;99.90;;;;;;5012682;28;20024;-96
2023/01/15 08:15:12;;;;;;;;;;;3.20;99.90;;;;;;5028625;28;19929;-96
2023/01/15 08:17:39;;;;;;;;;;;5.70;99.90;;;;;;5026903;28;19947;-96
2023/01/15 08:20:08;;;;;;;;;;;4.50;99.90;;;;;;5020814;28;19933;-96
2023/01/15 08:22:33;;;;;;;;;;;4.70;99.90;;;;;;5021397;28;19957;-96
2023/01/15 08:25:02;;;;;;;;;;;4.80;99.90;;;;;;5016886;28;20095;-96
2023/01/15 08:27:29;;;;;;;;;;;4.90;99.90;;;;;;5034601;28;19925;-95
2023/01/15 08:30:04;;;;;;;;;;;4.80;99.90;;;;;;5025960;28;19932;-96
2023/01/15 08:32:30;;;;;;;;;;;4.80;99.90;;;;;;5023904;28;19937;-96
2023/01/15 08:34:56;;;;;;;;;;;4.90;99.90;;;;;;5020941;28;20051;-96
2023/01/15 08:37:25;;;;;;;;;;;4.80;99.90;;;;;;5021577;28;19921;-96
2023/01/15 08:39:51;;;;;;;;;;;4.80;99.90;;;;;;5010593;28;19933;-95
2023/01/15 08:42:19;;;;;;;;;;;4.80;99.90;;;;;;5015837;28;20566;-95
2023/01/15 08:44:49;;;;;;;;;;;4.70;99.90;;;;;;5027628;28;20015;-96
2023/01/15 08:47:15;;;;;;;;;;;4.60;99.90;;;;;;5020494;28;19949;-96
2023/01/15 08:49:41;;;;;;;;;;;4.60;99.90;;;;;;5029058;28;19925;-96
2023/01/15 08:52:07;;;;;;;;;;;4.60;99.90;;;;;;5037775;28;19937;-96
2023/01/15 08:54:37;;;;;;;;;;;4.60;99.90;;;;;;5037858;28;20497;-95
2023/01/15 08:57:02;;;;;;;;;;;4.70;99.90;;;;;;5011438;28;19995;-95
2023/01/15 08:59:31;;;;;;;;;;;4.80;99.90;;;;;;5015665;28;20385;-96
2023/01/15 09:01:57;;;;;;;;;;;4.90;99.90;;;;;;5029559;28;19932;-96
2023/01/15 09:04:26;;;;;;;;;;;4.90;99.90;;;;;;5018319;28;19926;-96
2023/01/15 09:06:53;;;;;;;;;;;6.40;99.90;;;;;;5031934;28;19913;-95
2023/01/15 09:11:50;;;;;;;;;;;6.60;99.90;;;;;;5029838;28;20376;-96
2023/01/15 09:14:15;;;;;;;;;;;4.90;99.90;;;;;;5008607;28;19925;-96
2023/01/15 09:16:41;;;;;;;;;;;4.80;99.90;;;;;;4992228;28;19932;-96
2023/01/15 09:19:07;;;;;;;;;;;4.90;99.90;;;;;;5008446;28;19933;-96
2023/01/15 09:21:33;;;;;;;;;;;5.00;99.90;;;;;;5007384;28;20357;-96
2023/01/15 09:23:58;;;;;;;;;;;5.00;99.90;;;;;;5022570;28;19925;-96
2023/01/15 09:26:27;;;;;;;;;;;5.00;99.90;;;;;;5021695;28;19984;-95
2023/01/15 09:28:52;;;;;;;;;;;5.10;99.90;;;;;;5022240;28;19926;-95
2023/01/15 09:31:18;;;;;;;;;;;5.10;99.90;;;;;;5009852;28;19936;-94
2023/01/15 09:33:43;;;;;;;;;;;5.10;99.90;;;;;;5008714;28;20502;-95
2023/01/15 09:36:35;;;;;;;;;;;5.10;99.90;;;;;;5006286;28;19926;-96
2023/01/15 09:39:02;;;;;;;;;;;5.10;99.90;;;;;;5005161;28;19926;-95
2023/01/15 09:44:37;;;;;;;;;;;5.30;99.90;;;;;;5024195;28;19955;-96
2023/01/15 09:47:06;;;;;;;;;;;5.40;99.90;;;;;;5032835;22;19913;-93
2023/01/15 09:49:41;;;;;;;;;;;5.80;99.90;;;;;;5007425;28;19970;-91
2023/01/15 09:52:21;;;;;;;;;;;5.70;99.90;;;;;;4999493;28;21212;-91
2023/01/15 09:55:09;;;;;;;;;;;5.50;99.90;;;;;;4999466;28;20007;-88
2023/01/15 09:57:35;;;;;;;;;;;5.50;99.90;;;;;;4990672;28;19925;-88
2023/01/15 10:00:02;;;;;;;;;;;5.40;99.90;;;;;;5007267;28;19932;-89
2023/01/15 10:02:40;;;;;;;;;;;6.50;99.90;;;;;;4996466;28;19925;-88
2023/01/15 10:05:12;;;;;;;;;;;5.40;99.90;;;;;;4994501;28;20028;-88
2023/01/15 10:07:56;;;;;;;;;;;5.40;99.90;;;;;;4994481;28;19925;-89
2023/01/15 10:10:25;;;;;;;;;;;5.50;99.90;;;;;;5015545;28;19933;-88
2023/01/15 10:12:58;;;;;;;;;;;5.70;99.90;;;;;;5015588;28;20388;-90
2023/01/15 10:15:30;;;;;;;;;;;5.90;99.90;;;;;;5008678;28;19976;-89
2023/01/15 10:17:56;;;;;;;;;;;5.80;99.90;;;;;;4991876;28;19969;-89
2023/01/15 10:20:34;;;;;;;;;;;5.90;99.90;;;;;;4991696;28;19983;-93
2023/01/15 10:23:19;;;;;;;;;;;5.90;99.90;;;;;;5015131;28;19925;-88
2023/01/15 10:25:49;;;;;;;;;;;6.00;99.90;;;;;;5007909;28;19970;-87
2023/01/15 10:28:18;;;;;;;;;;;6.20;99.90;;;;;;4999110;28;19933;-89
2023/01/15 10:30:50;;;;;;;;;;;6.10;99.90;;;;;;5015760;28;19972;-87
2023/01/15 10:33:36;;;;;;;;;;;6.20;99.90;;;;;;4999275;28;19979;-88
2023/01/15 10:36:12;;;;;;;;;;;6.10;99.90;;;;;;5013468;28;20319;-88
2023/01/15 10:39:00;;;;;;;;;;;6.20;99.90;;;;;;5014354;28;20020;-89
2023/01/15 10:41:26;;;;;;;;;;;7.30;99.90;;;;;;5001660;28;19956;-90
2023/01/15 10:44:11;;;;;;;;;;;6.20;99.90;;;;;;5002977;28;20343;-89
2023/01/15 10:46:39;;;;;;;;;;;6.30;99.90;;;;;;5035080;28;19928;-90
2023/01/15 10:49:10;;;;;;;;;;;6.40;99.90;;;;;;4993358;28;20385;-87
2023/01/15 10:51:39;;;;;;;;;;;6.30;99.90;;;;;;5023481;28;19938;-92
2023/01/15 10:54:05;;;;;;;;;;;6.40;99.90;;;;;;5006568;28;19930;-90
2023/01/15 10:56:34;;;;;;;;;;;6.30;99.90;;;;;;5000969;28;19925;-90
2023/01/15 10:59:25;;;;;;;;;;;6.20;99.90;;;;;;5000991;28;19975;-92
2023/01/15 11:01:52;;;;;;;;;;;6.20;99.90;;;;;;5018196;28;19931;-89
2023/01/15 11:04:18;;;;;;;;;;;7.20;99.90;;;;;;5010959;28;19925;-92
2023/01/15 11:06:44;;;;;;;;;;;6.30;99.90;;;;;;5010260;28;19925;-91
2023/01/15 11:09:21;;;;;;;;;;;6.50;99.90;;;;;;5013906;28;20008;-88
2023/01/15 11:20:11;;;;;;;;;;;6.80;99.90;;;;;;5018558;28;19936;-88
2023/01/15 11:22:37;;;;;;;;;;;6.80;99.90;;;;;;5013720;28;19933;-89
2023/01/15 11:25:03;;;;;;;;;;;6.80;99.90;;;;;;5012331;28;20404;-88
2023/01/15 11:27:31;;;;;;;;;;;6.90;99.90;;;;;;5005556;28;19925;-90
2023/01/15 11:29:58;;;;;;;;;;;6.90;99.90;;;;;;5019175;28;19925;-88
2023/01/15 11:32:28;;;;;;;;;;;6.90;99.90;;;;;;5000296;28;21236;-91
2023/01/15 11:34:54;;;;;;;;;;;6.90;99.90;;;;;;5011533;28;19925;-91
2023/01/15 11:37:20;;;;;;;;;;;7.00;99.90;;;;;;4975523;28;19925;-91
2023/01/15 11:40:05;;;;;;;;;;;6.90;99.90;;;;;;4996346;28;20012;-93
2023/01/15 11:51:07;;;;;;;;;;;6.60;99.90;;;;;;5019972;28;19979;-89
2023/01/15 11:53:37;;;;;;;;;;;6.70;99.90;;;;;;5013540;28;20406;-88
2023/01/15 11:56:05;;;;;;;;;;;5.60;99.90;;;;;;5008158;28;19925;-89
2023/01/15 11:58:40;;;;;;;;;;;6.80;99.90;;;;;;4997206;28;19929;-89
2023/01/15 12:01:08;;;;;;;;;;;6.70;99.90;;;;;;5001571;28;19929;-88
2023/01/15 12:03:35;;;;;;;;;;;6.80;99.90;;;;;;5015338;28;19978;-87
2023/01/15 12:06:04;;;;;;;;;;;6.70;99.90;;;;;;5016499;28;19925;-87
2023/01/15 12:08:29;;;;;;;;;;;6.70;99.90;;;;;;5021097;28;19925;-86
2023/01/15 12:11:18;;;;;;;;;;;6.80;99.90;;;;;;4999842;28;19936;-86
2023/01/15 12:13:58;;;;;;;;;;;6.70;99.90;;;;;;5014611;28;19931;-86
2023/01/15 12:16:45;;;;;;;;;;;6.70;99.90;;;;;;5010887;28;19925;-86
2023/01/15 12:19:25;;;;;;;;;;;6.60;99.90;;;;;;5012896;28;20373;-87
2023/01/15 12:22:17;;;;;;;;;;;6.50;99.90;;;;;;5013657;28;19926;-89
2023/01/15 12:25:06;;;;;;;;;;;6.50;99.90;;;;;;5003942;28;19925;-86
2023/01/15 12:27:51;;;;;;;;;;;6.40;99.90;;;;;;5011417;28;20444;-86
2023/01/15 12:30:27;;;;;;;;;;;6.40;99.90;;;;;;4996128;28;20022;-87
2023/01/15 12:33:02;;;;;;;;;;;6.30;99.90;;;;;;5014107;28;19941;-87
2023/01/15 12:35:29;;;;;;;;;;;6.30;99.90;;;;;;5011552;28;20075;-92
2023/01/15 12:38:02;;;;;;;;;;;6.60;99.90;;;;;;4995649;28;19936;-85
2023/01/15 12:40:30;;;;;;;;;;;6.30;99.90;;;;;;4996849;28;19929;-88
2023/01/15 12:45:43;;;;;;;;;;;6.10;99.90;;;;;;5026113;28;19932;-86
2023/01/15 12:48:27;;;;;;;;;;;5.80;99.90;;;;;;5009787;28;19929;-86
2023/01/15 12:50:53;;;;;;;;;;;5.70;99.90;;;;;;4999839;28;19933;-86
2023/01/15 12:53:19;;;;;;;;;;;5.50;99.90;;;;;;5016306;28;19925;-87
2023/01/15 12:56:00;;;;;;;;;;;5.20;99.90;;;;;;4988612;28;19951;-88
2023/01/15 12:58:41;;;;;;;;;;;4.90;99.90;;;;;;5015900;28;19932;-87
2023/01/15 13:01:25;;;;;;;;;;;4.70;99.90;;;;;;4992426;28;19925;-86
2023/01/15 13:03:54;;;;;;;;;;;4.70;99.90;;;;;;4998256;28;19933;-86
2023/01/15 13:06:22;;;;;;;;;;;4.60;99.90;;;;;;4999025;28;19925;-85
2023/01/15 13:08:49;;;;;;;;;;;4.50;99.90;;;;;;5028798;28;19971;-87
2023/01/15 13:11:14;;;;;;;;;;;6.10;99.90;;;;;;4996300;28;19952;-88
2023/01/15 13:13:41;;;;;;;;;;;6.00;99.90;;;;;;4992483;28;19925;-89
2023/01/15 13:16:14;;;;;;;;;;;4.60;99.90;;;;;;5013200;28;19941;-88
2023/01/15 13:18:49;;;;;;;;;;;4.60;99.90;;;;;;4995996;28;19925;-89
2023/01/15 13:21:16;;;;;;;;;;;4.60;99.90;;;;;;4999591;28;20389;-90
2023/01/15 13:23:51;;;;;;;;;;;5.60;99.90;;;;;;4998243;28;19936;-89
2023/01/15 13:26:20;;;;;;;;;;;5.10;99.90;;;;;;4988032;28;19932;-88
2023/01/15 13:28:59;;;;;;;;;;;5.30;99.90;;;;;;4995887;28;19930;-89
2023/01/15 13:31:44;;;;;;;;;;;5.20;99.90;;;;;;4993429;28;19929;-88
2023/01/15 13:34:29;;;;;;;;;;;4.70;99.90;;;;;;5011342;28;19932;-90
2023/01/15 13:36:58;;;;;;;;;;;4.80;99.90;;;;;;5003647;28;19925;-90
2023/01/15 13:39:25;;;;;;;;;;;4.70;99.90;;;;;;5013919;28;19925;-89
2023/01/15 13:44:47;;;;;;;;;;;5.70;99.90;;;;;;5014086;28;20042;-88
2023/01/15 13:47:20;;;;;;;;;;;4.70;99.90;;;;;;5003773;28;19979;-87
2023/01/15 13:49:48;;;;;;;;;;;4.80;99.90;;;;;;4995064;28;19932;-89
2023/01/15 13:52:25;;;;;;;;;;;4.80;99.90;;;;;;5010687;28;19932;-89
2023/01/15 13:54:51;;;;;;;;;;;4.80;99.90;;;;;;5000873;28;19932;-89
2023/01/15 13:57:22;;;;;;;;;;;4.90;99.90;;;;;;4995447;28;19948;-87
2023/01/15 13:59:49;;;;;;;;;;;4.80;99.90;;;;;;4987458;28;19926;-87
2023/01/15 14:02:31;;;;;;;;;;;4.80;99.90;;;;;;5007251;28;20325;-86
2023/01/15 14:04:57;;;;;;;;;;;4.90;99.90;;;;;;4998862;28;20400;-86
2023/01/15 14:07:31;;;;;;;;;;;5.00;99.90;;;;;;5005636;28;19960;-87
2023/01/15 14:10:20;;;;;;;;;;;3.90;99.90;;;;;;4997206;28;19925;-87
2023/01/15 14:12:46;;;;;;;;;;;4.90;99.90;;;;;;4995443;28;19926;-88
2023/01/15 14:15:14;;;;;;;;;;;5.00;99.90;;;;;;5003128;28;19997;-87
2023/01/15 14:17:59;;;;;;;;;;;5.00;99.90;;;;;;5005149;28;19926;-86
2023/01/15 14:20:43;;;;;;;;;;;5.00;99.90;;;;;;5002147;28;19925;-87
2023/01/15 14:23:24;;;;;;;;;;;5.00;99.90;;;;;;5010330;28;20288;-89
2023/01/15 14:26:02;;;;;;;;;;;5.10;99.90;;;;;;5023372;28;19925;-89
2023/01/15 14:28:30;;;;;;;;;;;5.20;99.90;;;;;;5000162;28;19972;-90
2023/01/15 14:31:11;;;;;;;;;;;5.10;99.90;;;;;;5020978;28;20007;-89
2023/01/15 14:33:56;;;;;;;;;;;5.20;99.90;;;;;;4995063;28;19987;-91
2023/01/15 14:36:26;;;;;;;;;;;5.10;99.90;;;;;;5001867;28;19992;-91
2023/01/15 14:38:54;;;;;;;;;;;5.10;99.90;;;;;;5021286;28;20012;-90
2023/01/15 14:41:28;;;;;;;;;;;5.10;99.90;;;;;;5007961;28;20402;-90
2023/01/15 14:43:54;;;;;;;;;;;4.40;99.90;;;;;;5019039;28;19931;-86
2023/01/15 14:46:33;;;;;;;;;;;5.20;99.90;;;;;;5017399;28;19928;-87
2023/01/15 14:49:02;;;;;;;;;;;5.20;99.90;;;;;;5017498;28;20011;-85
2023/01/15 14:51:30;;;;;;;;;;;5.20;99.90;;;;;;5016046;28;20017;-86
2023/01/15 14:53:58;;;;;;;;;;;6.30;99.90;;;;;;5018325;28;20308;-87
2023/01/15 14:56:35;;;;;;;;;;;5.20;99.90;;;;;;5000034;28;19979;-89
2023/01/15 14:59:07;;;;;;;;;;;5.20;99.90;;;;;;5018713;28;19961;-88
2023/01/15 15:01:37;;;;;;;;;;;5.20;99.90;;;;;;4994388;28;19976;-87
2023/01/15 15:04:03;;;;;;;;;;;5.20;99.90;;;;;;5009499;28;19933;-85
2023/01/15 15:06:29;;;;;;;;;;;6.10;99.90;;;;;;5021063;28;19929;-85
2023/01/15 15:08:59;;;;;;;;;;;6.70;99.90;;;;;;4992813;28;19933;-89
2023/01/15 15:14:16;;;;;;;;;;;5.40;99.90;;;;;;5012138;28;19975;-92
2023/01/15 15:16:46;;;;;;;;;;;5.30;99.90;;;;;;5001072;28;20555;-94
2023/01/15 15:19:45;;;;;;;;;;;6.00;99.90;;;;;;5004574;28;19925;-91
2023/01/15 15:22:12;;;;;;;;;;;5.30;99.90;;;;;;4984006;28;19932;-92
2023/01/15 15:24:44;;;;;;;;;;;5.40;99.90;;;;;;5000358;28;19929;-89
2023/01/15 15:27:17;;;;;;;;;;;5.40;99.90;;;;;;5014468;28;19925;-91
2023/01/15 15:29:42;;;;;;;;;;;5.40;99.90;;;;;;5011152;28;19929;-89
2023/01/15 15:32:11;;;;;;;;;;;5.40;99.90;;;;;;5011470;28;19933;-87
2023/01/15 15:34:39;;;;;;;;;;;5.40;99.90;;;;;;5013322;28;19951;-89
2023/01/15 15:37:11;;;;;;;;;;;5.40;99.90;;;;;;4999403;28;19926;-92
2023/01/15 15:39:43;;;;;;;;;;;5.40;99.90;;;;;;5017315;28;20020;-89
2023/01/15 15:50:59;;;;;;;;;;;5.20;99.90;;;;;;5013376;28;19984;-88
2023/01/15 15:53:24;;;;;;;;;;;5.20;99.90;;;;;;5010658;28;19984;-87